Seiad Valley, California
Current Conditions -  °F | °C
As of 6:53 AM on Tuesday 21 Oct 2014 (Local Time) from KSIY Reporting Station
Overcast Overcast  
Wind Chill: 43°   Ceiling: 8000
Heat Index: 43°   Visibility: 10mi
Dew Point: 41°   Wind: 3mph
Humidity: 93%   Direction: 230°SW
Pressure: 30.1"   Gusts: NA
Location:  41.84°N, 123.19°W
Report Text: KSIY 211353Z AUTO 23003KT 10SM FEW050 BKN080 OVC095 06/05 A3010 RMK AO2 SLP205 T00610050
Loading
Personal Weather Stations






























Interactive Weather Map
Tropical Storm Tracking
New forecast layout! Learn more

10-Day Weather Forecast

Advertisements
Track Severe Weather on mobile